Time;durP1;ratioP1;P1;durP2;ratioP2;P2;SDS_P1;SDS_P2;PMS_P1;PMS_P2;Temp;Humidity;BMP_temperature;BMP_pressure;BME280_temperature;BME280_humidity;BME280_pressure;Samples;Min_cycle;Max_cycle;Signal;HPM_P1;HPM_P2
2024/01/11 00:01:10;;;;;;;9.55;7.65;;;1.10;97.30;;;;;;5068392;28;20708;-79
2024/01/11 00:03:39;;;;;;;9.85;7.10;;;1.10;97.30;;;;;;5068740;28;20227;-79
2024/01/11 00:06:08;;;;;;;11.18;7.25;;;1.10;97.30;;;;;;5068250;28;20709;-79
2024/01/11 00:08:36;;;;;;;10.52;7.70;;;1.10;97.30;;;;;;5063338;28;20231;-79
2024/01/11 00:11:04;;;;;;;9.50;6.78;;;1.10;97.30;;;;;;5066846;28;20212;-78
2024/01/11 00:13:33;;;;;;;9.65;6.30;;;1.10;97.30;;;;;;5063828;28;20256;-78
2024/01/11 00:16:01;;;;;;;10.18;6.82;;;1.10;97.30;;;;;;5068265;28;20207;-78
2024/01/11 00:18:29;;;;;;;9.80;6.57;;;1.10;97.30;;;;;;5063659;28;20602;-79
2024/01/11 00:20:59;;;;;;;11.25;7.18;;;1.10;97.30;;;;;;5046405;28;20636;-78
2024/01/11 00:23:27;;;;;;;10.55;7.72;;;1.10;97.30;;;;;;5068253;28;20574;-79
2024/01/11 00:25:55;;;;;;;10.77;7.88;;;1.10;97.30;;;;;;5072368;28;20192;-79
2024/01/11 00:28:23;;;;;;;9.85;7.25;;;1.10;97.30;;;;;;5077655;28;20215;-78
2024/01/11 00:30:52;;;;;;;9.38;7.30;;;1.10;97.30;;;;;;5078442;28;20217;-78
2024/01/11 00:33:20;;;;;;;11.60;6.97;;;1.00;97.20;;;;;;5049697;28;20219;-79
2024/01/11 00:35:48;;;;;;;8.63;6.45;;;1.10;97.30;;;;;;5074937;28;20270;-78
2024/01/11 00:38:18;;;;;;;10.88;6.82;;;1.00;97.30;;;;;;5047709;28;20214;-78
2024/01/11 00:40:46;;;;;;;11.38;7.50;;;1.00;97.30;;;;;;5041867;28;20216;-79
2024/01/11 00:43:14;;;;;;;9.82;7.20;;;1.10;97.30;;;;;;5068270;28;20230;-79
2024/01/11 00:45:42;;;;;;;12.73;7.50;;;1.00;97.30;;;;;;5067736;28;20219;-79
2024/01/11 00:48:11;;;;;;;10.02;7.30;;;1.00;97.30;;;;;;5058758;28;20220;-79
2024/01/11 00:50:39;;;;;;;10.30;6.90;;;1.10;97.30;;;;;;5063829;28;20318;-78
2024/01/11 00:53:08;;;;;;;9.15;6.60;;;1.00;97.30;;;;;;5049224;28;20220;-78
2024/01/11 00:55:37;;;;;;;8.68;6.30;;;1.00;97.30;;;;;;5067900;28;20851;-78
2024/01/11 00:58:06;;;;;;;12.23;7.32;;;1.00;97.30;;;;;;5067889;28;20216;-79
2024/01/11 01:00:34;;;;;;;11.20;7.65;;;1.00;97.30;;;;;;5061875;28;20286;-79
2024/01/11 01:03:03;;;;;;;9.32;6.53;;;1.00;97.30;;;;;;5060096;28;20215;-79
2024/01/11 01:05:31;;;;;;;8.77;6.80;;;1.00;97.30;;;;;;5068489;28;20579;-79
2024/01/11 01:08:00;;;;;;;12.10;7.43;;;1.00;97.30;;;;;;5062700;28;20223;-80
2024/01/11 01:10:28;;;;;;;11.98;7.47;;;1.00;97.30;;;;;;5066950;28;20232;-79
2024/01/11 01:12:58;;;;;;;8.73;6.85;;;1.00;97.30;;;;;;5071740;28;20307;-79
2024/01/11 01:15:26;;;;;;;9.15;6.72;;;1.00;97.30;;;;;;5057048;28;20195;-80
2024/01/11 01:17:54;;;;;;;9.70;7.72;;;1.00;97.30;;;;;;5067898;28;20731;-80
2024/01/11 01:20:22;;;;;;;10.30;7.10;;;1.00;97.30;;;;;;5050068;28;20235;-79
2024/01/11 01:22:50;;;;;;;8.93;6.75;;;1.00;97.30;;;;;;5065211;28;20302;-79
2024/01/11 01:25:19;;;;;;;11.80;7.20;;;1.00;97.30;;;;;;5050522;28;20223;-79
2024/01/11 01:27:48;;;;;;;10.05;7.00;;;1.00;97.30;;;;;;5073773;28;22994;-80
2024/01/11 01:30:17;;;;;;;10.63;7.43;;;1.00;97.30;;;;;;5065007;28;20218;-78
2024/01/11 01:32:46;;;;;;;10.00;6.93;;;1.00;97.30;;;;;;5049857;28;20196;-79
2024/01/11 01:35:14;;;;;;;10.10;7.07;;;1.00;97.30;;;;;;5068613;28;20204;-78
2024/01/11 01:37:43;;;;;;;8.75;6.65;;;1.00;97.30;;;;;;5084041;28;20182;-79
2024/01/11 01:40:12;;;;;;;10.13;7.45;;;1.00;97.30;;;;;;5086344;28;20222;-79
2024/01/11 01:42:43;;;;;;;10.07;7.50;;;1.00;97.30;;;;;;5078745;28;20195;-80
2024/01/11 01:45:11;;;;;;;10.10;6.93;;;1.00;97.30;;;;;;5066990;28;20204;-79
2024/01/11 01:47:41;;;;;;;9.30;6.07;;;1.00;97.30;;;;;;5065267;28;20208;-79
2024/01/11 01:50:12;;;;;;;10.38;8.05;;;1.00;97.30;;;;;;5067354;28;20358;-78
2024/01/11 01:52:43;;;;;;;10.43;7.07;;;1.00;97.30;;;;;;5070410;28;20196;-79
2024/01/11 01:55:15;;;;;;;9.25;7.40;;;1.00;97.30;;;;;;5049634;28;20206;-77
2024/01/11 01:57:45;;;;;;;9.20;6.47;;;1.00;97.30;;;;;;5067166;28;20992;-79
2024/01/11 02:00:15;;;;;;;8.65;6.85;;;1.00;97.30;;;;;;5058959;28;20231;-79
2024/01/11 02:02:45;;;;;;;9.63;6.78;;;0.90;97.20;;;;;;5066851;28;20933;-78
2024/01/11 02:05:15;;;;;;;10.25;7.60;;;1.00;97.30;;;;;;5064209;28;20688;-78
2024/01/11 02:07:44;;;;;;;9.85;7.78;;;1.00;97.30;;;;;;5061655;28;20204;-79
2024/01/11 02:10:12;;;;;;;9.60;7.50;;;0.90;97.20;;;;;;5064358;28;20207;-79
2024/01/11 02:12:42;;;;;;;12.40;7.38;;;1.00;97.30;;;;;;5067542;28;20218;-80
2024/01/11 02:15:10;;;;;;;8.43;5.80;;;1.00;97.30;;;;;;5065084;28;20216;-79
2024/01/11 02:17:41;;;;;;;10.05;6.85;;;0.90;97.20;;;;;;5051058;28;20196;-78
2024/01/11 02:20:12;;;;;;;15.10;8.07;;;0.90;97.30;;;;;;5061049;28;20691;-78
2024/01/11 02:22:47;;;;;;;8.43;6.40;;;0.90;97.30;;;;;;5066816;28;20198;-78
2024/01/11 02:25:17;;;;;;;12.23;8.10;;;0.90;97.30;;;;;;5055236;28;20215;-79
2024/01/11 02:27:47;;;;;;;9.63;6.70;;;0.90;97.30;;;;;;5066544;28;20213;-78
2024/01/11 02:30:16;;;;;;;8.55;5.75;;;0.90;97.30;;;;;;5047402;28;20223;-79
2024/01/11 02:32:46;;;;;;;8.70;6.70;;;0.90;97.30;;;;;;5071864;28;20227;-79
2024/01/11 02:35:15;;;;;;;10.23;6.60;;;0.90;97.30;;;;;;5061303;28;20200;-79
2024/01/11 02:37:45;;;;;;;11.15;7.35;;;0.90;97.30;;;;;;5063238;28;20196;-78
2024/01/11 02:40:14;;;;;;;10.30;7.60;;;0.90;97.30;;;;;;5061849;28;20515;-78
2024/01/11 02:42:44;;;;;;;8.18;6.82;;;0.90;97.30;;;;;;5068808;28;20248;-79
2024/01/11 02:45:13;;;;;;;11.70;7.25;;;0.90;97.30;;;;;;5053518;28;20211;-78
2024/01/11 02:47:41;;;;;;;10.10;7.25;;;0.90;97.30;;;;;;5074246;28;20212;-78
2024/01/11 02:50:11;;;;;;;10.43;7.25;;;0.90;97.30;;;;;;5088140;28;20223;-79
2024/01/11 02:52:40;;;;;;;12.00;7.32;;;0.90;97.30;;;;;;5073867;28;20607;-78
2024/01/11 02:55:08;;;;;;;9.57;6.97;;;0.90;97.30;;;;;;5068763;28;20199;-78
2024/01/11 02:57:37;;;;;;;9.40;6.38;;;0.90;97.30;;;;;;5066287;28;20733;-78
2024/01/11 03:00:08;;;;;;;11.85;7.13;;;0.90;97.30;;;;;;5068196;28;20208;-79
2024/01/11 03:02:37;;;;;;;9.90;6.65;;;0.90;97.30;;;;;;5069544;28;20204;-78
2024/01/11 03:05:07;;;;;;;7.55;6.43;;;0.90;97.30;;;;;;5056662;28;20219;-78
2024/01/11 03:07:35;;;;;;;10.88;6.65;;;0.90;97.30;;;;;;5070067;28;20230;-78
2024/01/11 03:10:03;;;;;;;10.43;6.05;;;0.90;97.30;;;;;;5049614;28;20219;-79
2024/01/11 03:12:31;;;;;;;10.75;7.30;;;0.90;97.20;;;;;;5070745;28;20245;-79
2024/01/11 03:14:59;;;;;;;11.32;6.65;;;0.90;97.20;;;;;;5078129;28;20212;-78
2024/01/11 03:17:28;;;;;;;9.18;6.72;;;0.80;97.20;;;;;;5056479;28;20202;-79
2024/01/11 03:19:57;;;;;;;12.45;6.72;;;0.90;97.20;;;;;;5065498;28;20223;-78
2024/01/11 03:22:26;;;;;;;12.98;6.97;;;0.80;97.20;;;;;;5069431;28;20341;-78
2024/01/11 03:24:54;;;;;;;11.02;6.90;;;0.80;97.20;;;;;;5057917;28;20282;-79
2024/01/11 03:27:23;;;;;;;12.57;6.78;;;0.90;97.30;;;;;;5066344;28;20239;-78
2024/01/11 03:29:51;;;;;;;9.00;6.43;;;0.90;97.30;;;;;;5065230;28;20223;-78
2024/01/11 03:32:19;;;;;;;10.18;6.10;;;0.80;97.20;;;;;;5049569;28;20215;-78
2024/01/11 03:34:49;;;;;;;9.73;7.10;;;0.80;97.20;;;;;;5044977;28;20889;-78
2024/01/11 03:37:18;;;;;;;9.50;6.75;;;0.80;97.20;;;;;;5065370;28;20317;-78
2024/01/11 03:39:46;;;;;;;9.40;6.65;;;0.80;97.20;;;;;;5070727;28;20226;-79
2024/01/11 03:42:15;;;;;;;10.07;7.20;;;0.80;97.20;;;;;;5067855;28;20243;-78
2024/01/11 03:44:43;;;;;;;8.95;6.38;;;0.80;97.20;;;;;;5067613;28;20695;-78
2024/01/11 03:47:11;;;;;;;10.60;6.90;;;0.80;97.20;;;;;;5064135;28;20303;-79
2024/01/11 03:49:40;;;;;;;8.55;6.32;;;0.80;97.20;;;;;;5051073;28;20228;-78
2024/01/11 03:52:09;;;;;;;11.45;7.00;;;0.80;97.20;;;;;;5060877;28;20215;-79
2024/01/11 03:54:37;;;;;;;10.00;7.10;;;0.80;97.20;;;;;;5067745;28;20261;-78
2024/01/11 03:57:06;;;;;;;10.93;7.18;;;0.80;97.20;;;;;;5056159;28;20192;-78
2024/01/11 03:59:35;;;;;;;11.05;6.55;;;0.80;97.20;;;;;;5088066;28;20231;-77
2024/01/11 04:02:03;;;;;;;10.57;6.90;;;0.80;97.20;;;;;;5059542;28;20287;-78
2024/01/11 04:04:31;;;;;;;9.23;6.10;;;0.80;97.20;;;;;;5068783;28;20243;-79
2024/01/11 04:07:00;;;;;;;13.00;6.90;;;0.80;97.20;;;;;;5043769;28;20212;-78
2024/01/11 04:09:29;;;;;;;16.63;7.35;;;0.80;97.20;;;;;;5068575;28;20636;-78
2024/01/11 04:11:57;;;;;;;13.32;7.82;;;0.80;97.20;;;;;;5065357;28;20192;-79
2024/01/11 04:14:25;;;;;;;10.13;6.88;;;0.80;97.30;;;;;;5067755;28;20224;-78
2024/01/11 04:16:53;;;;;;;9.38;5.85;;;0.80;97.30;;;;;;5065265;28;20201;-79
2024/01/11 04:19:22;;;;;;;9.63;6.70;;;0.80;97.30;;;;;;5046652;28;20228;-79
2024/01/11 04:21:51;;;;;;;9.48;6.25;;;0.80;97.20;;;;;;5047825;28;20277;-79
2024/01/11 04:24:19;;;;;;;14.07;6.97;;;0.80;97.30;;;;;;5050853;28;20243;-79
2024/01/11 04:26:49;;;;;;;8.32;6.18;;;0.80;97.30;;;;;;5069388;28;20216;-78
2024/01/11 04:29:17;;;;;;;12.98;7.47;;;0.80;97.20;;;;;;5065674;28;20244;-79
2024/01/11 04:31:46;;;;;;;10.73;6.85;;;0.80;97.30;;;;;;5048394;28;20199;-79
2024/01/11 04:34:14;;;;;;;10.32;6.10;;;0.80;97.30;;;;;;5060065;28;20222;-79
2024/01/11 04:36:42;;;;;;;8.93;6.03;;;0.70;97.20;;;;;;5067626;28;20479;-79
2024/01/11 04:39:11;;;;;;;11.93;7.03;;;0.70;97.20;;;;;;5059488;28;20216;-79
2024/01/11 04:41:40;;;;;;;10.95;6.85;;;0.70;97.20;;;;;;5061671;28;20188;-79
2024/01/11 04:44:11;;;;;;;11.02;6.90;;;0.70;97.20;;;;;;5063449;28;20219;-79
2024/01/11 04:46:39;;;;;;;9.23;5.95;;;0.70;97.20;;;;;;5069159;28;20675;-79
2024/01/11 04:49:07;;;;;;;9.88;6.28;;;0.70;97.20;;;;;;5046241;28;20220;-79
2024/01/11 04:51:36;;;;;;;7.68;6.25;;;0.70;97.30;;;;;;5064788;28;20196;-79
2024/01/11 04:54:04;;;;;;;10.77;7.63;;;0.70;97.20;;;;;;5069684;28;20227;-79
2024/01/11 04:56:32;;;;;;;9.88;7.15;;;0.70;97.20;;;;;;5067477;28;20836;-79
2024/01/11 04:59:00;;;;;;;9.60;6.18;;;0.70;97.20;;;;;;5066312;28;20216;-79
2024/01/11 05:01:30;;;;;;;10.95;6.82;;;0.70;97.20;;;;;;5064459;28;20208;-79
2024/01/11 05:03:58;;;;;;;9.82;6.93;;;0.70;97.20;;;;;;5067507;28;20439;-79
2024/01/11 05:06:26;;;;;;;9.40;6.10;;;0.70;97.20;;;;;;5064037;28;20201;-79
2024/01/11 05:08:55;;;;;;;8.75;5.93;;;0.70;97.20;;;;;;5081575;28;20318;-79
2024/01/11 05:11:24;;;;;;;8.93;6.68;;;0.70;97.20;;;;;;5078076;28;20204;-79
2024/01/11 05:13:53;;;;;;;10.63;7.80;;;0.70;97.20;;;;;;5048620;28;20227;-79
2024/01/11 05:16:23;;;;;;;9.13;6.72;;;0.70;97.20;;;;;;5055600;28;20312;-79
2024/01/11 05:18:54;;;;;;;7.97;6.80;;;0.70;97.20;;;;;;5052393;28;20224;-79
2024/01/11 05:21:22;;;;;;;9.55;6.53;;;0.70;97.20;;;;;;5063548;28;20195;-79
2024/01/11 05:23:51;;;;;;;7.25;6.47;;;0.70;97.20;;;;;;5062224;28;20225;-79
2024/01/11 05:26:20;;;;;;;7.25;6.13;;;0.70;97.20;;;;;;5047305;28;20660;-79
2024/01/11 05:28:48;;;;;;;12.45;7.55;;;0.70;97.20;;;;;;5047072;28;20227;-79
2024/01/11 05:31:17;;;;;;;9.90;6.43;;;0.70;97.20;;;;;;5060523;28;20842;-78
2024/01/11 05:33:46;;;;;;;9.10;7.05;;;0.70;97.20;;;;;;5066419;28;20708;-79
2024/01/11 05:36:16;;;;;;;8.65;6.65;;;0.70;97.20;;;;;;5064290;28;20195;-79
2024/01/11 05:38:46;;;;;;;9.00;6.22;;;0.70;97.20;;;;;;5066083;28;20232;-79
2024/01/11 05:41:14;;;;;;;8.18;6.80;;;0.70;97.20;;;;;;5067988;28;20680;-79
2024/01/11 05:43:44;;;;;;;9.77;6.70;;;0.70;97.20;;;;;;5066448;28;20659;-79
2024/01/11 05:46:12;;;;;;;10.32;7.07;;;0.70;97.20;;;;;;5067277;28;20191;-79
2024/01/11 05:48:40;;;;;;;8.85;6.10;;;0.60;97.20;;;;;;5067623;28;20231;-79
2024/01/11 05:51:09;;;;;;;9.55;6.55;;;0.70;97.20;;;;;;5045836;28;20866;-79
2024/01/11 05:53:38;;;;;;;8.48;6.53;;;0.70;97.20;;;;;;5069599;28;20220;-79
2024/01/11 05:56:10;;;;;;;8.05;6.40;;;0.60;97.20;;;;;;5049706;28;20211;-79
2024/01/11 05:58:40;;;;;;;10.23;6.50;;;0.70;97.20;;;;;;5067209;28;20219;-79
2024/01/11 06:01:09;;;;;;;13.82;7.47;;;0.60;97.20;;;;;;5067263;28;20238;-79
2024/01/11 06:03:38;;;;;;;9.02;5.35;;;0.70;97.20;;;;;;5066913;28;20303;-80
2024/01/11 06:06:07;;;;;;;8.05;6.30;;;0.60;97.10;;;;;;5064022;28;20604;-79
2024/01/11 06:08:37;;;;;;;11.00;6.93;;;0.70;97.20;;;;;;5058634;28;20251;-79
2024/01/11 06:11:07;;;;;;;9.52;5.68;;;0.60;97.10;;;;;;5062803;28;20222;-79
2024/01/11 06:13:36;;;;;;;10.02;6.22;;;0.60;97.20;;;;;;5061723;28;20238;-80
2024/01/11 06:16:04;;;;;;;11.35;7.00;;;0.60;97.20;;;;;;5065313;28;20560;-79
2024/01/11 06:18:32;;;;;;;7.47;5.80;;;0.60;97.20;;;;;;5064458;28;20216;-80
2024/01/11 06:21:01;;;;;;;7.80;5.43;;;0.60;97.20;;;;;;5085840;28;20246;-79
2024/01/11 06:23:29;;;;;;;8.90;5.45;;;0.60;97.20;;;;;;5079520;28;20433;-78
2024/01/11 06:25:59;;;;;;;8.77;6.72;;;0.60;97.20;;;;;;5062098;28;20202;-79
2024/01/11 06:28:27;;;;;;;9.32;6.50;;;0.60;97.20;;;;;;5043292;28;20224;-78
2024/01/11 06:30:55;;;;;;;7.60;6.00;;;0.60;97.20;;;;;;5065368;28;20390;-79
2024/01/11 06:33:24;;;;;;;10.43;6.68;;;0.60;97.20;;;;;;5063821;28;20832;-79
2024/01/11 06:35:52;;;;;;;9.85;7.25;;;0.60;97.20;;;;;;5061296;28;20431;-79
2024/01/11 06:38:21;;;;;;;6.32;5.10;;;0.60;97.20;;;;;;5064819;28;20231;-80
2024/01/11 06:40:49;;;;;;;10.27;6.32;;;0.60;97.70;;;;;;5067672;28;20581;-80
2024/01/11 06:43:19;;;;;;;8.27;5.95;;;0.60;97.20;;;;;;5066607;28;20211;-79
2024/01/11 06:45:47;;;;;;;9.48;6.97;;;0.60;97.20;;;;;;5065014;28;20666;-78
2024/01/11 06:48:16;;;;;;;10.80;8.65;;;0.60;97.20;;;;;;5066691;28;20224;-79
2024/01/11 06:50:45;;;;;;;11.27;6.20;;;0.60;97.70;;;;;;5072783;28;20223;-79
2024/01/11 06:53:13;;;;;;;8.98;6.03;;;0.60;97.20;;;;;;5064718;28;20269;-78
2024/01/11 06:55:42;;;;;;;9.60;5.85;;;0.60;97.20;;;;;;5066352;28;20214;-79
2024/01/11 06:58:11;;;;;;;9.98;6.60;;;0.60;97.20;;;;;;5057747;28;20220;-78
2024/01/11 07:00:42;;;;;;;12.90;8.20;;;0.50;97.10;;;;;;5064528;28;20218;-78
2024/01/11 07:03:12;;;;;;;9.15;6.93;;;0.50;97.10;;;;;;5038634;28;20222;-78
2024/01/11 07:05:41;;;;;;;11.70;6.18;;;0.50;97.10;;;;;;5065729;28;20200;-79
2024/01/11 07:08:09;;;;;;;8.05;5.90;;;0.50;97.10;;;;;;5062086;28;20235;-79
2024/01/11 07:10:38;;;;;;;11.50;7.18;;;0.60;97.20;;;;;;5047353;28;20612;-78
2024/01/11 07:13:06;;;;;;;9.25;6.30;;;0.60;97.20;;;;;;5031992;28;20214;-78
2024/01/11 07:15:35;;;;;;;10.82;6.85;;;0.50;97.10;;;;;;5065787;28;20256;-79
2024/01/11 07:18:05;;;;;;;8.45;6.15;;;0.50;97.20;;;;;;5064334;28;20250;-78
2024/01/11 07:20:34;;;;;;;10.18;6.55;;;0.50;97.20;;;;;;5063610;28;20228;-78
2024/01/11 07:23:02;;;;;;;7.93;6.03;;;0.50;97.10;;;;;;5063408;28;20243;-78
2024/01/11 07:25:31;;;;;;;10.30;6.15;;;0.50;97.20;;;;;;5056224;28;20200;-78
2024/01/11 07:27:59;;;;;;;7.70;5.28;;;0.50;97.20;;;;;;5064200;28;20238;-78
2024/01/11 07:30:27;;;;;;;9.75;6.32;;;0.50;97.10;;;;;;5072022;28;20249;-78
2024/01/11 07:32:56;;;;;;;9.80;6.50;;;0.50;97.10;;;;;;5083882;28;20226;-79
2024/01/11 07:35:26;;;;;;;7.60;6.22;;;0.50;97.10;;;;;;5067491;28;20198;-78
2024/01/11 07:37:54;;;;;;;10.43;7.75;;;0.50;97.10;;;;;;5069073;28;20292;-79
2024/01/11 07:40:22;;;;;;;11.95;7.20;;;0.50;97.10;;;;;;5048727;28;20222;-78
2024/01/11 07:42:51;;;;;;;10.55;6.75;;;0.50;97.10;;;;;;5063449;28;20291;-78
2024/01/11 07:45:19;;;;;;;9.48;6.20;;;0.50;97.20;;;;;;5069479;28;20269;-79
2024/01/11 07:47:47;;;;;;;7.60;6.40;;;0.50;97.10;;;;;;5069243;28;20688;-78
2024/01/11 07:50:16;;;;;;;7.65;5.75;;;0.50;97.10;;;;;;5065335;28;20297;-78
2024/01/11 07:52:45;;;;;;;8.73;6.40;;;0.50;97.10;;;;;;5044902;28;20219;-78
2024/01/11 07:55:14;;;;;;;7.93;6.05;;;0.50;97.20;;;;;;5052031;28;20257;-78
2024/01/11 07:57:42;;;;;;;9.07;5.70;;;0.50;97.20;;;;;;5068962;28;20202;-78
2024/01/11 08:00:10;;;;;;;9.05;7.05;;;0.50;97.60;;;;;;5068547;28;20207;-78
2024/01/11 08:02:41;;;;;;;8.07;5.97;;;0.50;97.10;;;;;;5069339;28;20289;-78
2024/01/11 08:05:10;;;;;;;9.13;7.05;;;0.40;97.10;;;;;;5062302;28;20242;-79
2024/01/11 08:07:38;;;;;;;9.40;5.40;;;0.40;97.10;;;;;;5057122;28;20222;-78
2024/01/11 08:10:09;;;;;;;8.60;6.25;;;0.50;97.20;;;;;;5069776;28;20225;-78
2024/01/11 08:12:38;;;;;;;8.27;6.05;;;0.40;97.10;;;;;;5063075;28;20196;-79
2024/01/11 08:15:06;;;;;;;8.70;6.50;;;0.50;97.20;;;;;;5066997;28;20641;-79
2024/01/11 08:17:34;;;;;;;7.25;5.30;;;0.40;97.10;;;;;;5062369;28;20565;-79
2024/01/11 08:20:07;;;;;;;8.45;6.15;;;0.40;97.10;;;;;;5065479;28;20231;-79
2024/01/11 08:22:37;;;;;;;7.80;5.97;;;0.40;97.10;;;;;;5066421;28;20208;-79
2024/01/11 08:25:06;;;;;;;8.45;6.93;;;0.40;97.10;;;;;;5048698;28;20303;-79
2024/01/11 08:27:36;;;;;;;10.82;6.70;;;0.50;97.10;;;;;;5067167;28;20432;-79
2024/01/11 08:30:06;;;;;;;8.48;6.20;;;0.50;97.10;;;;;;5060290;28;20280;-78
2024/01/11 08:32:39;;;;;;;10.77;6.97;;;0.40;97.10;;;;;;5066168;28;20188;-79
2024/01/11 08:35:09;;;;;;;9.18;6.20;;;0.40;97.10;;;;;;5067211;28;20212;-78
2024/01/11 08:37:39;;;;;;;10.25;5.82;;;0.40;97.10;;;;;;5050628;28;20277;-79
2024/01/11 08:40:09;;;;;;;8.50;5.88;;;0.40;97.10;;;;;;5068577;28;20305;-79
2024/01/11 08:42:39;;;;;;;8.68;6.53;;;0.40;97.10;;;;;;5057670;28;20212;-79
2024/01/11 08:45:08;;;;;;;10.95;7.45;;;0.40;97.10;;;;;;5079895;28;20249;-79
2024/01/11 08:47:38;;;;;;;8.93;6.18;;;0.40;97.10;;;;;;5076178;28;20223;-79
2024/01/11 08:50:07;;;;;;;10.18;6.82;;;0.40;97.10;;;;;;5069118;28;20220;-79
2024/01/11 08:52:36;;;;;;;9.15;6.85;;;0.40;97.10;;;;;;5045714;28;20194;-79
2024/01/11 08:55:06;;;;;;;9.10;6.40;;;0.40;97.10;;;;;;5061323;28;20251;-79
2024/01/11 08:57:35;;;;;;;9.15;6.32;;;0.40;97.10;;;;;;5047067;28;20246;-80
2024/01/11 09:00:06;;;;;;;10.80;6.55;;;0.40;97.10;;;;;;5060958;28;20316;-79
2024/01/11 09:02:35;;;;;;;9.98;6.43;;;0.40;97.10;;;;;;5067424;28;20187;-79
2024/01/11 09:05:07;;;;;;;9.00;5.82;;;0.40;97.10;;;;;;5064130;28;20240;-79
2024/01/11 09:07:37;;;;;;;8.63;5.55;;;0.40;97.10;;;;;;5045863;28;20244;-79
2024/01/11 09:10:06;;;;;;;12.98;7.10;;;0.40;97.10;;;;;;5043943;28;20238;-79
2024/01/11 09:12:35;;;;;;;12.40;6.50;;;0.40;97.10;;;;;;5064117;28;20672;-80
2024/01/11 09:15:05;;;;;;;8.60;5.70;;;0.40;97.10;;;;;;5062653;28;20219;-80
2024/01/11 09:17:34;;;;;;;9.55;7.93;;;0.40;97.10;;;;;;5062330;28;20676;-80
2024/01/11 09:20:03;;;;;;;11.02;6.97;;;0.40;97.10;;;;;;5060104;28;20675;-80
2024/01/11 09:22:31;;;;;;;10.73;7.10;;;0.40;97.10;;;;;;5054253;28;20660;-80
2024/01/11 09:25:01;;;;;;;10.52;7.20;;;0.40;97.50;;;;;;5047955;28;20219;-80
2024/01/11 09:27:29;;;;;;;9.23;6.65;;;0.40;97.00;;;;;;5065773;28;20198;-80
2024/01/11 09:29:59;;;;;;;10.43;6.38;;;0.40;97.10;;;;;;5046955;28;20283;-81
2024/01/11 09:32:30;;;;;;;9.38;7.28;;;0.40;97.10;;;;;;5044107;28;20774;-80
2024/01/11 09:35:01;;;;;;;10.68;7.15;;;0.40;97.00;;;;;;5063475;28;20215;-80
2024/01/11 09:37:33;;;;;;;10.15;7.57;;;0.40;97.00;;;;;;5044294;28;20195;-81
2024/01/11 09:40:03;;;;;;;8.82;6.60;;;0.50;97.00;;;;;;5045631;28;20220;-81
2024/01/11 09:42:33;;;;;;;14.25;10.00;;;0.50;97.00;;;;;;5049350;28;20466;-80
2024/01/11 09:45:05;;;;;;;16.08;9.75;;;0.50;96.80;;;;;;5046632;28;20223;-82
2024/01/11 09:47:38;;;;;;;11.15;8.70;;;0.50;96.80;;;;;;5050161;28;20205;-82
2024/01/11 09:50:10;;;;;;;18.05;10.05;;;0.50;96.80;;;;;;5062296;28;20332;-82
2024/01/11 09:52:41;;;;;;;13.30;7.90;;;0.50;96.70;;;;;;5031408;28;20188;-82
2024/01/11 09:55:11;;;;;;;13.60;9.43;;;0.50;96.80;;;;;;5062089;28;20200;-84
2024/01/11 09:57:46;;;;;;;11.15;7.40;;;0.50;96.70;;;;;;5061360;28;20202;-83
2024/01/11 10:00:20;;;;;;;12.38;8.35;;;0.50;96.80;;;;;;5053994;28;20239;-82
2024/01/11 10:02:51;;;;;;;10.70;7.38;;;0.50;96.80;;;;;;5051573;28;20691;-82
2024/01/11 10:05:22;;;;;;;11.68;8.35;;;0.50;96.80;;;;;;5068264;28;20191;-83
2024/01/11 10:07:52;;;;;;;11.25;7.88;;;0.50;96.80;;;;;;5044813;28;20216;-83
2024/01/11 10:10:22;;;;;;;12.10;7.57;;;0.50;96.80;;;;;;5070453;28;20220;-83
2024/01/11 10:12:52;;;;;;;11.77;7.20;;;0.50;96.80;;;;;;5051440;28;20176;-83
2024/01/11 10:15:25;;;;;;;11.35;7.40;;;0.50;96.80;;;;;;5043753;23;20223;-47
2024/01/11 10:17:55;;;;;;;12.18;8.27;;;0.50;96.80;;;;;;5042284;28;20200;-46
2024/01/11 10:20:24;;;;;;;13.75;8.00;;;0.50;96.90;;;;;;5024350;28;20296;-47
2024/01/11 10:22:53;;;;;;;10.85;7.50;;;0.50;96.90;;;;;;5043271;28;20200;-47
2024/01/11 10:25:21;;;;;;;13.68;7.50;;;0.50;96.90;;;;;;5043454;28;20271;-46
2024/01/11 10:27:50;;;;;;;12.23;8.82;;;0.40;96.90;;;;;;5043412;28;20189;-46
2024/01/11 10:30:20;;;;;;;10.07;7.07;;;0.50;96.90;;;;;;5043107;28;20208;-45
2024/01/11 10:32:48;;;;;;;12.93;7.43;;;0.50;96.90;;;;;;5043479;28;20204;-46
2024/01/11 10:35:18;;;;;;;11.93;7.68;;;0.40;96.90;;;;;;5044257;28;20218;-47
2024/01/11 10:37:54;;;;;;;10.07;7.35;;;0.40;96.90;;;;;;5040293;28;20219;-50
2024/01/11 10:40:25;;;;;;;10.95;7.78;;;0.50;97.00;;;;;;5037423;28;20209;-46
2024/01/11 10:42:53;;;;;;;9.15;6.30;;;0.40;97.00;;;;;;5043285;28;20199;-47
2024/01/11 10:45:24;;;;;;;12.10;8.13;;;0.40;97.00;;;;;;5022596;28;20192;-46
2024/01/11 10:47:56;;;;;;;13.15;8.55;;;0.40;97.00;;;;;;5043213;28;20239;-49
2024/01/11 10:50:35;;;;;;;10.38;6.95;;;0.40;97.00;;;;;;5041776;28;20286;-46
2024/01/11 10:53:11;;;;;;;12.27;8.13;;;0.50;97.10;;;;;;5039939;28;20252;-46
2024/01/11 10:55:43;;;;;;;10.77;8.00;;;0.40;97.10;;;;;;5029106;28;20262;-47
2024/01/11 10:58:14;;;;;;;10.85;7.38;;;0.50;97.10;;;;;;5046638;28;20214;-47
2024/01/11 11:00:45;;;;;;;10.52;6.13;;;0.40;97.10;;;;;;5042588;28;20235;-53
2024/01/11 11:03:17;;;;;;;11.90;7.65;;;0.40;97.10;;;;;;5038194;28;20222;-46
2024/01/11 11:05:50;;;;;;;11.20;8.45;;;0.50;97.20;;;;;;5044468;28;20729;-47
2024/01/11 11:08:20;;;;;;;8.95;6.35;;;0.40;97.20;;;;;;5048259;28;20216;-47
2024/01/11 11:10:51;;;;;;;10.98;6.93;;;0.40;97.10;;;;;;5046349;28;20235;-46
2024/01/11 11:13:21;;;;;;;12.15;8.20;;;0.50;97.20;;;;;;5043527;28;20285;-47
2024/01/11 11:15:50;;;;;;;8.13;6.10;;;0.40;97.10;;;;;;5048531;28;20283;-48
2024/01/11 11:18:20;;;;;;;10.15;7.57;;;0.40;97.20;;;;;;5042365;28;20846;-46
2024/01/11 11:20:51;;;;;;;11.10;8.25;;;0.40;97.20;;;;;;5048511;28;20204;-46
2024/01/11 11:23:22;;;;;;;9.05;7.07;;;0.40;97.20;;;;;;5041314;28;20227;-48
2024/01/11 11:25:51;;;;;;;11.35;7.38;;;0.40;97.20;;;;;;5044512;28;20201;-47
2024/01/11 11:28:21;;;;;;;9.43;7.05;;;0.40;97.20;;;;;;5045336;28;20213;-47
2024/01/11 11:30:51;;;;;;;9.52;7.53;;;0.40;97.20;;;;;;5043337;28;20598;-45
2024/01/11 11:33:22;;;;;;;12.48;6.80;;;0.40;97.30;;;;;;5042500;28;20220;-47
2024/01/11 11:35:55;;;;;;;11.68;7.13;;;0.40;97.30;;;;;;5042498;28;20225;-46
2024/01/11 11:38:25;;;;;;;8.60;6.30;;;0.40;97.30;;;;;;5040231;28;20216;-47
2024/01/11 11:40:56;;;;;;;10.75;6.57;;;0.40;97.30;;;;;;5048079;28;20212;-48
2024/01/11 11:43:26;;;;;;;12.25;7.63;;;0.40;97.30;;;;;;5045380;28;20350;-46
2024/01/11 11:45:56;;;;;;;12.13;7.43;;;0.40;97.30;;;;;;5047356;28;20290;-48
2024/01/11 11:48:52;;;;;;;10.50;7.68;;;0.40;97.30;;;;;;5036527;28;20233;-47
2024/01/11 11:51:23;;;;;;;10.15;6.78;;;0.40;97.30;;;;;;5039639;28;20305;-47
2024/01/11 11:53:56;;;;;;;12.07;7.55;;;0.40;97.30;;;;;;5038159;28;20228;-46
2024/01/11 11:56:25;;;;;;;10.80;7.53;;;0.40;97.30;;;;;;5044168;28;20207;-46
2024/01/11 11:58:54;;;;;;;10.80;7.85;;;0.40;97.30;;;;;;5038119;28;20600;-47
2024/01/11 12:01:24;;;;;;;7.10;6.10;;;0.40;97.30;;;;;;5045780;28;20220;-47
2024/01/11 12:03:54;;;;;;;11.80;7.70;;;0.40;97.40;;;;;;5039648;28;20220;-47
2024/01/11 12:06:27;;;;;;;10.02;7.43;;;0.40;97.40;;;;;;5044020;28;20258;-46
2024/01/11 12:08:57;;;;;;;10.45;7.45;;;0.40;97.40;;;;;;5046305;28;20308;-46
2024/01/11 12:11:27;;;;;;;11.20;6.68;;;0.40;97.40;;;;;;5042719;28;20216;-48
2024/01/11 12:13:58;;;;;;;9.13;7.32;;;0.40;97.60;;;;;;5031711;28;20219;-46
2024/01/11 12:16:28;;;;;;;10.43;6.68;;;0.40;97.40;;;;;;5040333;28;20211;-45
2024/01/11 12:18:57;;;;;;;10.52;7.82;;;0.40;97.40;;;;;;5039909;28;20215;-45
2024/01/11 12:21:28;;;;;;;13.20;7.55;;;0.40;97.40;;;;;;5048894;28;20296;-45
2024/01/11 12:23:57;;;;;;;12.50;7.40;;;0.40;97.40;;;;;;5041203;28;20246;-47
2024/01/11 12:26:27;;;;;;;10.65;7.00;;;0.40;97.50;;;;;;5044478;28;20260;-46
2024/01/11 12:28:55;;;;;;;8.00;6.32;;;0.40;97.50;;;;;;5040036;28;20257;-47
2024/01/11 12:31:25;;;;;;;15.15;7.63;;;0.40;97.50;;;;;;5038636;28;20227;-46
2024/01/11 12:33:54;;;;;;;9.02;6.40;;;0.40;97.50;;;;;;5036150;28;20274;-47
2024/01/11 12:36:25;;;;;;;9.35;7.32;;;0.40;97.50;;;;;;5041271;28;20189;-48
2024/01/11 12:38:59;;;;;;;10.23;7.10;;;0.40;97.50;;;;;;5036234;28;20225;-47
2024/01/11 12:41:28;;;;;;;9.90;7.03;;;0.40;97.50;;;;;;5038485;28;20216;-46
2024/01/11 12:43:58;;;;;;;11.60;7.18;;;0.40;97.50;;;;;;5035691;28;20266;-47
2024/01/11 12:46:29;;;;;;;11.15;7.50;;;0.40;97.50;;;;;;5039342;28;20555;-46
2024/01/11 12:48:59;;;;;;;9.00;7.15;;;0.40;97.50;;;;;;5037579;28;20219;-46
2024/01/11 12:51:28;;;;;;;9.30;6.28;;;0.40;97.50;;;;;;5046281;28;20245;-46
2024/01/11 12:53:59;;;;;;;12.68;7.63;;;0.40;97.60;;;;;;5045988;28;20219;-47
2024/01/11 12:56:32;;;;;;;9.32;6.82;;;0.40;97.50;;;;;;5045473;28;20207;-47
2024/01/11 12:59:09;;;;;;;12.10;7.00;;;0.40;97.60;;;;;;5036889;28;20235;-47
2024/01/11 13:01:39;;;;;;;9.93;6.60;;;0.40;97.60;;;;;;5040183;28;20217;-47